createdAt,value
2022-09-13T00:00:40.617Z,18.12
2022-09-13T00:04:40.487Z,12.98
2022-09-13T00:08:40.814Z,20.52
2022-09-13T00:12:40.812Z,13.4
2022-09-13T00:16:41.160Z,17.5
2022-09-13T00:20:40.456Z,14.77
2022-09-13T00:24:39.948Z,16.4
2022-09-13T00:28:40.567Z,16.1
2022-09-13T00:32:40.045Z,17.45
2022-09-13T00:36:40.477Z,16.33
2022-09-13T00:40:40.618Z,19.5
2022-09-13T00:44:40.495Z,16.92
2022-09-13T00:48:40.436Z,18.65
2022-09-13T00:52:44.887Z,18.92
2022-09-13T00:56:40.435Z,23.38
2022-09-13T01:00:40.501Z,18.37
2022-09-13T01:04:40.438Z,19.55
2022-09-13T01:08:40.498Z,18.3
2022-09-13T01:12:40.359Z,17.17
2022-09-13T01:16:39.755Z,17.8
2022-09-13T01:20:40.834Z,16.55
2022-09-13T01:24:40.279Z,19.1
2022-09-13T01:28:40.630Z,21.05
2022-09-13T01:32:40.446Z,25.08
2022-09-13T01:36:40.690Z,25.2
2022-09-13T01:40:40.454Z,18.35
2022-09-13T01:44:40.533Z,19.2
2022-09-13T01:48:40.403Z,17.1
2022-09-13T01:52:40.868Z,18.35
2022-09-13T01:56:40.554Z,15.27
2022-09-13T02:00:40.314Z,18.75
2022-09-13T02:04:40.141Z,26.02
2022-09-13T02:08:40.232Z,17.85
2022-09-13T02:12:40.498Z,21
2022-09-13T02:16:40.829Z,17.42
2022-09-13T02:20:39.678Z,19.85
2022-09-13T02:24:40.673Z,22.9
2022-09-13T02:28:40.448Z,15.57
2022-09-13T02:32:40.584Z,25
2022-09-13T02:36:40.473Z,20.88
2022-09-13T02:40:40.900Z,13.82
2022-09-13T02:44:40.413Z,15.23
2022-09-13T02:48:40.971Z,21.85
2022-09-13T02:52:40.423Z,16.1
2022-09-13T02:56:39.876Z,14.32
2022-09-13T03:00:40.616Z,18
2022-09-13T03:04:40.566Z,17.4
2022-09-13T03:08:40.437Z,16.62
2022-09-13T03:12:40.454Z,18.7
2022-09-13T03:16:40.823Z,18.1
2022-09-13T03:20:40.329Z,19.35
2022-09-13T03:24:39.980Z,18.15
2022-09-13T03:28:40.855Z,15.4
2022-09-13T03:32:40.628Z,19.05
2022-09-13T03:36:40.492Z,16.98
2022-09-13T03:40:40.483Z,21.4
2022-09-13T03:44:40.365Z,18.12
2022-09-13T03:48:40.580Z,17.37
2022-09-13T03:52:45.807Z,16.52
2022-09-13T03:56:39.543Z,13.6
2022-09-13T04:00:40.575Z,13.62
2022-09-13T04:04:40.462Z,18.23
2022-09-13T04:08:41.234Z,16.2
2022-09-13T04:12:41.186Z,22
2022-09-13T04:16:40.722Z,15.6
2022-09-13T04:20:40.408Z,19.08
2022-09-13T04:24:40.031Z,15.95
2022-09-13T04:28:40.458Z,22.25
2022-09-13T04:32:39.273Z,14.1
2022-09-13T04:36:40.988Z,17.58
2022-09-13T04:40:40.565Z,19.23
2022-09-13T04:44:40.565Z,21.75
2022-09-13T04:48:40.486Z,17.98
2022-09-13T04:52:41.267Z,16.8
2022-09-13T04:56:40.887Z,17.7
2022-09-13T05:00:40.599Z,15.57
2022-09-13T05:04:40.450Z,20.1
2022-09-13T05:08:40.417Z,17.6
2022-09-13T05:12:40.912Z,14.23
2022-09-13T05:16:40.229Z,14.63
2022-09-13T05:20:40.408Z,16.8
2022-09-13T05:24:40.447Z,15
2022-09-13T05:28:40.449Z,12.55
2022-09-13T05:32:40.575Z,10.88
2022-09-13T05:36:40.470Z,9.05
2022-09-13T05:40:40.438Z,9.52
2022-09-13T05:44:41.196Z,10.32
2022-09-13T05:48:40.559Z,8.6
2022-09-13T05:52:40.568Z,11.9
2022-09-13T05:56:40.407Z,12.77
2022-09-13T06:00:40.536Z,12.25
2022-09-13T06:04:40.297Z,8.85
2022-09-13T06:08:40.548Z,13.35
2022-09-13T06:12:41.207Z,12.63
2022-09-13T06:16:40.738Z,7.28
2022-09-13T06:20:40.411Z,10.75
2022-09-13T06:24:40.503Z,5.85
2022-09-13T06:28:40.604Z,8.93
2022-09-13T06:32:39.381Z,8.02
2022-09-13T06:36:40.575Z,4.37
2022-09-13T06:40:40.599Z,7.15
2022-09-13T06:44:40.449Z,5.7
2022-09-13T06:48:40.466Z,7.32
2022-09-13T06:52:41.082Z,8.6
2022-09-13T06:56:40.327Z,8.93
2022-09-13T07:00:40.826Z,7.25
2022-09-13T07:04:40.574Z,4.07
2022-09-13T07:08:40.493Z,6.15
2022-09-13T07:12:40.522Z,6.05
2022-09-13T07:16:40.482Z,4.68
2022-09-13T07:20:40.546Z,8.88
2022-09-13T07:24:41.184Z,8.8
2022-09-13T07:28:41.053Z,12.3
2022-09-13T07:32:40.447Z,8.73
2022-09-13T07:36:40.827Z,7.85
2022-09-13T07:40:40.489Z,9.88
2022-09-13T07:44:40.579Z,7.6
2022-09-13T07:48:40.576Z,10.13
2022-09-13T07:52:40.693Z,6.82
2022-09-13T07:56:40.957Z,13.48
2022-09-13T08:00:40.529Z,8.8
2022-09-13T08:04:40.340Z,14.63
2022-09-13T08:08:40.905Z,11.07
2022-09-13T08:12:39.315Z,9.05
2022-09-13T08:16:41.225Z,12.05
2022-09-13T08:20:40.475Z,11.95
2022-09-13T08:24:40.526Z,12.52
2022-09-13T08:28:40.482Z,8.52
2022-09-13T08:32:40.430Z,9.1
2022-09-13T08:36:40.567Z,9.93
2022-09-13T08:40:40.611Z,13.48
2022-09-13T08:44:40.533Z,11.55
2022-09-13T08:48:41.113Z,12.5
2022-09-13T08:52:40.582Z,6.93
2022-09-13T08:56:40.884Z,7.65
2022-09-13T09:00:40.584Z,13.85
2022-09-13T09:04:40.422Z,9.35
2022-09-13T09:08:40.458Z,6.87
2022-09-13T09:12:40.462Z,8.43
2022-09-13T09:16:40.446Z,11.18
2022-09-13T09:20:40.504Z,12.05
2022-09-13T09:24:40.450Z,7.45
2022-09-13T09:28:40.456Z,7.1
2022-09-13T09:32:40.457Z,10.85
2022-09-13T09:36:40.961Z,6.97
2022-09-13T09:40:40.692Z,6.07
2022-09-13T09:44:40.479Z,6.3
2022-09-13T09:48:40.508Z,9.07
2022-09-13T09:52:40.681Z,6.1
2022-09-13T09:56:40.485Z,9.27
2022-09-13T10:00:40.589Z,7.8
2022-09-13T10:04:40.472Z,7.37
2022-09-13T10:08:40.549Z,6.1
2022-09-13T10:12:40.496Z,5.3
2022-09-13T10:16:40.341Z,8.88
2022-09-13T10:20:41.014Z,8.6
2022-09-13T10:24:39.409Z,7.3
2022-09-13T10:28:40.819Z,7.55
2022-09-13T10:32:40.689Z,6.28
2022-09-13T10:36:52.301Z,5.53
2022-09-13T10:40:40.730Z,5.7
2022-09-13T10:44:40.495Z,7.3
2022-09-13T10:48:40.533Z,9.25
2022-09-13T10:52:41.128Z,5.05
2022-09-13T10:56:40.498Z,4.7
2022-09-13T11:00:40.793Z,5.05
2022-09-13T11:04:40.641Z,4.78
2022-09-13T11:08:40.786Z,5.55
2022-09-13T11:12:40.531Z,6.68
2022-09-13T11:16:40.582Z,4.05
2022-09-13T11:20:40.599Z,4.7
2022-09-13T11:24:40.569Z,9
2022-09-13T11:28:40.512Z,4.03
2022-09-13T11:32:40.820Z,5
2022-09-13T11:36:41.098Z,6.25
2022-09-13T11:40:40.509Z,4.1
2022-09-13T11:44:40.463Z,4.18
2022-09-13T11:48:40.557Z,5.07
2022-09-13T11:52:39.277Z,3.78
2022-09-13T11:56:40.914Z,6
2022-09-13T12:00:40.642Z,4.28
2022-09-13T12:04:41.145Z,3.92
2022-09-13T12:08:40.422Z,4.55
2022-09-13T12:12:40.058Z,7.43
2022-09-13T12:16:41.294Z,6.2
2022-09-13T12:20:40.906Z,4.35
2022-09-13T12:24:40.489Z,6.4
2022-09-13T12:28:40.756Z,3.8
2022-09-13T12:32:40.260Z,7.85
2022-09-13T12:36:40.662Z,3.97
2022-09-13T12:40:40.644Z,5.75
2022-09-13T12:44:40.460Z,5.95
2022-09-13T12:48:40.479Z,4.4
2022-09-13T12:52:40.513Z,4.47
2022-09-13T12:56:40.660Z,3.95
2022-09-13T13:00:40.529Z,4.78
2022-09-13T13:04:40.485Z,5.4
2022-09-13T13:08:40.493Z,3.28
2022-09-13T13:12:39.489Z,5.37
2022-09-13T13:16:40.749Z,5.5
2022-09-13T13:20:40.553Z,5.78
2022-09-13T13:24:39.380Z,6.72
2022-09-13T13:28:40.598Z,5.05
2022-09-13T13:32:39.743Z,3.8
2022-09-13T13:36:40.234Z,4.62
2022-09-13T13:40:40.853Z,5.87
2022-09-13T13:44:40.564Z,10.18
2022-09-13T13:48:40.666Z,8.68
2022-09-13T13:52:40.471Z,5.7
2022-09-13T13:56:40.515Z,6.28
2022-09-13T14:00:40.861Z,5.28
2022-09-13T14:04:40.438Z,13.62
2022-09-13T14:08:40.542Z,5
2022-09-13T14:12:40.632Z,8.68
2022-09-13T14:16:41.177Z,4
2022-09-13T14:20:40.766Z,5.03
2022-09-13T14:24:40.647Z,4.55
2022-09-13T14:28:40.462Z,5.03
2022-09-13T14:32:41.886Z,7.05
2022-09-13T14:36:40.518Z,4
2022-09-13T14:40:40.670Z,5.28
2022-09-13T14:44:40.472Z,6.18
2022-09-13T14:48:40.809Z,5.4
2022-09-13T14:52:40.802Z,4.4
2022-09-13T14:56:40.446Z,5.78
2022-09-13T15:00:40.701Z,7.4
2022-09-13T15:04:43.032Z,5.4
2022-09-13T15:08:40.463Z,4.47
2022-09-13T15:12:40.597Z,7.1
2022-09-13T15:16:40.334Z,5.8
2022-09-13T15:20:40.814Z,4.7
2022-09-13T15:24:40.602Z,6.37
2022-09-13T15:28:40.529Z,4.45
2022-09-13T15:32:40.601Z,4.47
2022-09-13T15:36:40.467Z,6.18
2022-09-13T15:40:40.612Z,3.78
2022-09-13T15:44:42.639Z,7.03
2022-09-13T15:48:40.992Z,4.25
2022-09-13T15:52:40.403Z,7.25
2022-09-13T15:56:40.348Z,6
2022-09-13T16:00:40.577Z,6.82
2022-09-13T16:04:40.464Z,6.8
2022-09-13T16:08:40.493Z,6.4
2022-09-13T16:12:40.434Z,7.32
2022-09-13T16:16:41.057Z,7.22
2022-09-13T16:20:40.621Z,11.23
2022-09-13T16:24:40.717Z,7.2
2022-09-13T16:28:40.562Z,12.02
2022-09-13T16:32:40.529Z,15.75
2022-09-13T16:36:41.180Z,8.18
2022-09-13T16:40:41.037Z,6.12
2022-09-13T16:44:40.463Z,12.23
2022-09-13T16:48:40.996Z,8.27
2022-09-13T16:52:40.437Z,15.95
2022-09-13T16:56:41.184Z,6.2
2022-09-13T17:00:40.435Z,12.85
2022-09-13T17:04:40.647Z,9.6
2022-09-13T17:08:40.455Z,7.3
2022-09-13T17:12:39.921Z,8.98
2022-09-13T17:16:40.675Z,6.97
2022-09-13T17:20:40.705Z,8.48
2022-09-13T17:24:40.642Z,8.23
2022-09-13T17:28:40.508Z,7.75
2022-09-13T17:32:40.632Z,7.68
2022-09-13T17:36:40.863Z,7.95
2022-09-13T17:40:40.478Z,11.82
2022-09-13T17:44:40.830Z,7.6
2022-09-13T17:48:40.255Z,8.38
2022-09-13T17:52:40.416Z,9.82
2022-09-13T17:56:41.097Z,9.63
2022-09-13T18:00:40.554Z,8.23
2022-09-13T18:04:40.602Z,14.35
2022-09-13T18:08:40.953Z,12.52
2022-09-13T18:12:40.634Z,6.9
2022-09-13T18:16:40.377Z,10.85
2022-09-13T18:20:41.034Z,17
2022-09-13T18:24:40.805Z,8.23
2022-09-13T18:28:40.389Z,12
2022-09-13T18:32:39.250Z,11.85
2022-09-13T18:36:40.516Z,11.48
2022-09-13T18:40:40.598Z,12.68
2022-09-13T18:44:40.543Z,11.43
2022-09-13T18:48:41.172Z,8.07
2022-09-13T18:52:40.939Z,12.13
2022-09-13T18:56:40.550Z,12.5
2022-09-13T19:00:40.636Z,13.07
2022-09-13T19:04:40.495Z,10.2
2022-09-13T19:08:40.382Z,12.35
2022-09-13T19:12:40.440Z,10.57
2022-09-13T19:16:40.303Z,14.85
2022-09-13T19:20:40.515Z,14.68
2022-09-13T19:24:40.354Z,14.07
2022-09-13T19:28:40.412Z,12.15
2022-09-13T19:32:40.363Z,10.93
2022-09-13T19:36:40.367Z,11.52
2022-09-13T19:40:40.543Z,13.18
2022-09-13T19:44:40.476Z,13.93
2022-09-13T19:48:40.626Z,12.95
2022-09-13T19:52:39.890Z,14.07
2022-09-13T19:56:40.978Z,20.65
2022-09-13T20:00:40.429Z,12.68
2022-09-13T20:04:40.546Z,13.35
2022-09-13T20:08:40.505Z,16.67
2022-09-13T20:12:40.437Z,19.27
2022-09-13T20:16:40.263Z,16.95
2022-09-13T20:20:40.506Z,16.35
2022-09-13T20:24:40.521Z,15.85
2022-09-13T20:28:40.449Z,15.85
2022-09-13T20:32:41.015Z,17.37
2022-09-13T20:36:40.500Z,16.48
2022-09-13T20:40:40.658Z,16.15
2022-09-13T20:44:40.389Z,19.65
2022-09-13T20:48:40.548Z,15.3
2022-09-13T20:52:40.495Z,15.7
2022-09-13T20:56:40.105Z,20.52
2022-09-13T21:00:40.502Z,21.4
2022-09-13T21:04:40.521Z,17.62
2022-09-13T21:08:40.481Z,20.65
2022-09-13T21:12:40.461Z,18.3
2022-09-13T21:16:40.531Z,16.73
2022-09-13T21:20:40.451Z,17.42
2022-09-13T21:24:40.417Z,16.65
2022-09-13T21:28:41.210Z,14.6
2022-09-13T21:32:40.746Z,16.1
2022-09-13T21:36:40.606Z,17.25
2022-09-13T21:40:40.738Z,14.63
2022-09-13T21:44:40.436Z,14.9
2022-09-13T21:48:40.431Z,15.52
2022-09-13T21:52:40.808Z,14.98
2022-09-13T21:56:41.042Z,13.65
2022-09-13T22:00:40.097Z,15.77
2022-09-13T22:04:40.914Z,17.7
2022-09-13T22:08:40.614Z,16.83
2022-09-13T22:12:40.526Z,17.52
2022-09-13T22:16:41.010Z,21.75
2022-09-13T22:20:40.382Z,20.95
2022-09-13T22:24:40.411Z,15.63
2022-09-13T22:28:40.332Z,18.67
2022-09-13T22:32:40.868Z,16.25
2022-09-13T22:36:40.487Z,21.1
2022-09-13T22:40:40.574Z,21.15
2022-09-13T22:44:40.907Z,16.45
2022-09-13T22:48:40.822Z,18.3
2022-09-13T22:52:40.906Z,20.55
2022-09-13T22:56:40.922Z,24
2022-09-13T23:00:40.568Z,24.42
2022-09-13T23:04:40.437Z,25.15
2022-09-13T23:08:40.552Z,25.27
2022-09-13T23:12:40.486Z,28.55
2022-09-13T23:16:40.648Z,29.33
2022-09-13T23:20:40.866Z,32.08
2022-09-13T23:24:41.073Z,32.8
2022-09-13T23:28:40.498Z,29.1
2022-09-13T23:32:40.581Z,28.9
2022-09-13T23:36:41.189Z,28.2
2022-09-13T23:40:40.547Z,34.05
2022-09-13T23:44:40.303Z,29.95
2022-09-13T23:48:40.439Z,31.1
2022-09-13T23:52:40.558Z,38.9
2022-09-13T23:56:41.114Z,31.65
